Michel Dsr — FLTE — position and weather

sailwx.info

Track history (hours):
 
Tides and Currents Weather Stations Pressure Air Temp Water Temp Dewpoint Dewpoint Depression Visibility Wind Speed Wind Dir Waves Ship Positions

Michel Dsr

Last reported at 2014-Jul-27 04:29 UTC. Time now 2014-Jul-30 15:12 UTC.
Position N 47°12' W 001°38'.

Length 80 m; draft 5 m.

Type: Dredging. MMSI: 228344700.

Date/timePositionNaut miles runAvg speedWind from/ knotsBaromVisibWave heightAir tempDewpointWater temp
2014-Jul-27 04:29N 47°12' W 001°38'27 1.2
2014-Jul-26 06:24N 47°12' W 002°18'0 0.0
2014-Jul-26 05:16N 47°12' W 002°18'0 0.0
2014-Jul-26 04:06N 47°12' W 002°18'0 0.0
2014-Jul-26 03:12N 47°12' W 002°18'0 0.1
2014-Jul-26 02:24N 47°13' W 002°18'0 0.0
2014-Jul-25 07:31N 47°13' W 002°18'0 0.0
2014-Jul-25 06:16N 47°13' W 002°18'0 0.0
2014-Jul-25 05:30N 47°13' W 002°18'0 0.0
2014-Jul-25 04:30N 47°13' W 002°18'0 0.0
2014-Jul-25 03:31N 47°13' W 002°18'0 0.0
2014-Jul-25 02:30N 47°13' W 002°18'0 0.1
2014-Jul-25 01:30N 47°13' W 002°18'0 0.0
2014-Jul-25 00:18N 47°13' W 002°18'0 0.0
2014-Jul-24 23:31N 47°13' W 002°18'0 0.1
2014-Jul-24 22:31N 47°13' W 002°18'0 0.0
2014-Jul-24 20:22N 47°13' W 002°18'0 0.0
2014-Jul-24 19:25N 47°13' W 002°18'9 0.8
2014-Jul-24 08:05N 47°18' W 002°07'0 0.0
2014-Jul-24 07:27N 47°18' W 002°07'0 0.0
2014-Jul-24 06:33N 47°18' W 002°07'0 0.0
2014-Jul-24 05:33N 47°18' W 002°07'0 0.0
2014-Jul-24 04:33N 47°18' W 002°07'0 0.0
2014-Jul-24 03:34N 47°18' W 002°07'0 0.0
2014-Jul-24 02:33N 47°18' W 002°07'0 0.0
2014-Jul-24 01:33N 47°18' W 002°07'0 0.0
2014-Jul-24 00:29N 47°18' W 002°07'0 0.0
2014-Jul-23 23:28N 47°18' W 002°07'0 0.0
2014-Jul-23 22:09N 47°18' W 002°07'0 0.0
2014-Jul-23 01:14N 47°18' W 002°07'14 0.7
2014-Jul-22 05:33N 47°07' W 002°20'0 0.0
2014-Jul-22 03:19N 47°07' W 002°20'0 0.0
2014-Jul-22 02:33N 47°07' W 002°20'0 0.0
2014-Jul-22 01:28N 47°07' W 002°20'0 0.0
2014-Jul-22 00:27N 47°07' W 002°20'0 0.0
2014-Jul-21 23:27N 47°07' W 002°20'0 0.0
2014-Jul-21 13:31N 47°07' W 002°20'87 3.3
2014-Jul-20 11:16N 45°57' W 001°03'4 5.4
2014-Jul-20 10:33N 45°55' W 000°59'2 0.1
2014-Jul-19 10:21N 45°57' W 000°56'3 3.3
2014-Jul-19 09:27N 45°56' W 001°00'89 5.5
2014-Jul-18 17:10N 47°06' W 002°21'0 0.3
2014-Jul-18 16:33N 47°06' W 002°21'0 0.2
2014-Jul-18 15:32N 47°06' W 002°21'0 0.1
2014-Jul-18 14:33N 47°06' W 002°21'1 0.7
2014-Jul-18 13:08N 47°05' W 002°22'1 2.0
2014-Jul-18 12:33N 47°05' W 002°20'17 7.7
2014-Jul-18 10:19N 47°18' W 002°04'912.1
2014-Jul-18 09:32N 47°15' W 001°51'1010.0
2014-Jul-18 08:33N 47°12' W 001°38'0 0.0
2014-Jul-18 07:20N 47°12' W 001°38'0 0.0
2014-Jul-18 06:33N 47°12' W 001°38'0 0.0
2014-Jul-18 05:08N 47°12' W 001°38'0 0.0
2014-Jul-18 04:33N 47°12' W 001°38'0 0.0
2014-Jul-18 03:26N 47°12' W 001°38'0 0.0
2014-Jul-18 01:33N 47°12' W 001°38'0 0.0
2014-Jul-18 00:33N 47°12' W 001°38'0 0.0
2014-Jul-17 23:33N 47°12' W 001°38'0 0.0
2014-Jul-17 22:33N 47°12' W 001°38'0 0.0
2014-Jul-17 21:33N 47°12' W 001°38'1 1.0
2014-Jul-17 20:23N 47°12' W 001°40'8 9.9
2014-Jul-17 19:34N 47°15' W 001°51'12 9.0
2014-Jul-17 18:16N 47°18' W 002°07'1 0.1
2014-Jul-17 06:34N 47°18' W 002°09'8 7.6
2014-Jul-17 05:33N 47°12' W 002°17'10 9.9
2014-Jul-17 04:33N 47°04' W 002°25'  
Track history (hours):
 
Tides and Currents Weather Stations Pressure Air Temp Water Temp Dewpoint Dewpoint Depression Visibility Wind Speed Wind Dir Waves Ship Positions

Michel Dsr

Last reported at 2014-Jul-27 04:29 UTC. Time now 2014-Jul-30 15:12 UTC.
Position N 47°12' W 001°38'.

Length 80 m; draft 5 m.

Type: Dredging. MMSI: 228344700.

Date/timePositionNaut miles runAvg speedWind from/ knotsBaromVisibWave heightAir tempDewpointWater temp
2014-Jul-27 04:29N 47°12' W 001°38'27 1.2
2014-Jul-26 06:24N 47°12' W 002°18'0 0.0
2014-Jul-26 05:16N 47°12' W 002°18'0 0.0
2014-Jul-26 04:06N 47°12' W 002°18'0 0.0
2014-Jul-26 03:12N 47°12' W 002°18'0 0.1
2014-Jul-26 02:24N 47°13' W 002°18'0 0.0
2014-Jul-25 07:31N 47°13' W 002°18'0 0.0
2014-Jul-25 06:16N 47°13' W 002°18'0 0.0
2014-Jul-25 05:30N 47°13' W 002°18'0 0.0
2014-Jul-25 04:30N 47°13' W 002°18'0 0.0
2014-Jul-25 03:31N 47°13' W 002°18'0 0.0
2014-Jul-25 02:30N 47°13' W 002°18'0 0.1
2014-Jul-25 01:30N 47°13' W 002°18'0 0.0
2014-Jul-25 00:18N 47°13' W 002°18'0 0.0
2014-Jul-24 23:31N 47°13' W 002°18'0 0.1
2014-Jul-24 22:31N 47°13' W 002°18'0 0.0
2014-Jul-24 20:22N 47°13' W 002°18'0 0.0
2014-Jul-24 19:25N 47°13' W 002°18'9 0.8
2014-Jul-24 08:05N 47°18' W 002°07'0 0.0
2014-Jul-24 07:27N 47°18' W 002°07'0 0.0
2014-Jul-24 06:33N 47°18' W 002°07'0 0.0
2014-Jul-24 05:33N 47°18' W 002°07'0 0.0
2014-Jul-24 04:33N 47°18' W 002°07'0 0.0
2014-Jul-24 03:34N 47°18' W 002°07'0 0.0
2014-Jul-24 02:33N 47°18' W 002°07'0 0.0
2014-Jul-24 01:33N 47°18' W 002°07'0 0.0
2014-Jul-24 00:29N 47°18' W 002°07'0 0.0
2014-Jul-23 23:28N 47°18' W 002°07'0 0.0
2014-Jul-23 22:09N 47°18' W 002°07'0 0.0
2014-Jul-23 01:14N 47°18' W 002°07'14 0.7
2014-Jul-22 05:33N 47°07' W 002°20'0 0.0
2014-Jul-22 03:19N 47°07' W 002°20'0 0.0
2014-Jul-22 02:33N 47°07' W 002°20'0 0.0
2014-Jul-22 01:28N 47°07' W 002°20'0 0.0
2014-Jul-22 00:27N 47°07' W 002°20'0 0.0
2014-Jul-21 23:27N 47°07' W 002°20'0 0.0
2014-Jul-21 13:31N 47°07' W 002°20'87 3.3
2014-Jul-20 11:16N 45°57' W 001°03'4 5.4
2014-Jul-20 10:33N 45°55' W 000°59'2 0.1
2014-Jul-19 10:21N 45°57' W 000°56'3 3.3
2014-Jul-19 09:27N 45°56' W 001°00'89 5.5
2014-Jul-18 17:10N 47°06' W 002°21'0 0.3
2014-Jul-18 16:33N 47°06' W 002°21'0 0.2
2014-Jul-18 15:32N 47°06' W 002°21'0 0.1
2014-Jul-18 14:33N 47°06' W 002°21'1 0.7
2014-Jul-18 13:08N 47°05' W 002°22'1 2.0
2014-Jul-18 12:33N 47°05' W 002°20'17 7.7
2014-Jul-18 10:19N 47°18' W 002°04'912.1
2014-Jul-18 09:32N 47°15' W 001°51'1010.0
2014-Jul-18 08:33N 47°12' W 001°38'0 0.0
2014-Jul-18 07:20N 47°12' W 001°38'0 0.0
2014-Jul-18 06:33N 47°12' W 001°38'0 0.0
2014-Jul-18 05:08N 47°12' W 001°38'0 0.0
2014-Jul-18 04:33N 47°12' W 001°38'0 0.0
2014-Jul-18 03:26N 47°12' W 001°38'0 0.0
2014-Jul-18 01:33N 47°12' W 001°38'0 0.0
2014-Jul-18 00:33N 47°12' W 001°38'0 0.0
2014-Jul-17 23:33N 47°12' W 001°38'0 0.0
2014-Jul-17 22:33N 47°12' W 001°38'0 0.0
2014-Jul-17 21:33N 47°12' W 001°38'1 1.0
2014-Jul-17 20:23N 47°12' W 001°40'8 9.9
2014-Jul-17 19:34N 47°15' W 001°51'12 9.0
2014-Jul-17 18:16N 47°18' W 002°07'1 0.1
2014-Jul-17 06:34N 47°18' W 002°09'8 7.6
2014-Jul-17 05:33N 47°12' W 002°17'10 9.9
2014-Jul-17 04:33N 47°04' W 002°25'  

Dump ship's entire track history